N430801 KTPA-KLAL
Flight info
| Callsign | N430801 |
|---|---|
| Flight time | 0h 37m |
| Altitude | VFR/016 |
| Route | RV |
| Aircraft | C185/L-DOV/C |
Departure
| Time | 2026-04-26 22:40 |
|---|---|
| Airport | Tampa International Airport (KTPA) |
Arrival
| Time | 2026-04-26 23:17 |
|---|---|
| Airport | Lakeland Linder International Airport (KLAL) |
| Time | Latitude | Longitude | Altitude | Speed | Heading |
|---|---|---|---|---|---|
| 2026-04-26 22:31 | 27.96859 | -82.52045 | 34 ft | 0 kts | 359° |
| 2026-04-26 22:34 | 27.96860 | -82.52045 | 34 ft | 0 kts | 15° |
| 2026-04-26 22:34 | 27.96859 | -82.52029 | 34 ft | 6 kts | 97° |
| 2026-04-26 22:35 | 27.96859 | -82.51985 | 33 ft | 0 kts | 61° |
| 2026-04-26 22:37 | 27.96887 | -82.51972 | 32 ft | 8 kts | 1° |
| 2026-04-26 22:37 | 27.96925 | -82.51933 | 31 ft | 10 kts | 86° |
| 2026-04-26 22:37 | 27.96926 | -82.51844 | 29 ft | 13 kts | 101° |
| 2026-04-26 22:38 | 27.96916 | -82.51739 | 28 ft | 13 kts | 89° |
| 2026-04-26 22:38 | 27.96917 | -82.51623 | 26 ft | 15 kts | 94° |
| 2026-04-26 22:38 | 27.96911 | -82.51496 | 24 ft | 16 kts | 86° |
| 2026-04-26 22:38 | 27.96992 | -82.51454 | 22 ft | 13 kts | 351° |
| 2026-04-26 22:39 | 27.97020 | -82.51486 | 23 ft | 2 kts | 264° |
| 2026-04-26 22:39 | 27.97033 | -82.51749 | 73 ft | 63 kts | 275° |
| 2026-04-26 22:39 | 27.97055 | -82.52366 | 322 ft | 97 kts | 271° |
| 2026-04-26 22:39 | 27.97072 | -82.53280 | 620 ft | 124 kts | 271° |
| 2026-04-26 22:40 | 27.97093 | -82.54250 | 1109 ft | 126 kts | 271° |
| 2026-04-26 22:40 | 27.97223 | -82.55240 | 1484 ft | 130 kts | 298° |
| 2026-04-26 22:40 | 27.97957 | -82.55764 | 1900 ft | 128 kts | 354° |
| 2026-04-26 22:40 | 27.98835 | -82.55528 | 2154 ft | 132 kts | 20° |
| 2026-04-26 22:41 | 27.99686 | -82.55136 | 2434 ft | 133 kts | 22° |
| 2026-04-26 22:41 | 28.00537 | -82.54706 | 2657 ft | 136 kts | 24° |
| 2026-04-26 22:41 | 28.01393 | -82.54237 | 2898 ft | 136 kts | 26° |
| 2026-04-26 22:41 | 28.02206 | -82.53714 | 3156 ft | 134 kts | 35° |
| 2026-04-26 22:42 | 28.02867 | -82.52979 | 3432 ft | 132 kts | 54° |
| 2026-04-26 22:42 | 28.03355 | -82.52105 | 3710 ft | 131 kts | 58° |
| 2026-04-26 22:42 | 28.03805 | -82.51204 | 3941 ft | 132 kts | 62° |
| 2026-04-26 22:42 | 28.04222 | -82.50267 | 4163 ft | 134 kts | 64° |
| 2026-04-26 22:43 | 28.04612 | -82.49287 | 4286 ft | 141 kts | 66° |
| 2026-04-26 22:43 | 28.05007 | -82.48198 | 4117 ft | 158 kts | 68° |
| 2026-04-26 22:43 | 28.05380 | -82.47101 | 3751 ft | 143 kts | 69° |
| 2026-04-26 22:43 | 28.05731 | -82.46062 | 3284 ft | 141 kts | 69° |
| 2026-04-26 22:44 | 28.06080 | -82.45025 | 2821 ft | 140 kts | 69° |
| 2026-04-26 22:44 | 28.06408 | -82.43994 | 2392 ft | 138 kts | 71° |
| 2026-04-26 22:44 | 28.06707 | -82.42969 | 1982 ft | 135 kts | 71° |
| 2026-04-26 22:44 | 28.07001 | -82.41970 | 1645 ft | 134 kts | 71° |
| 2026-04-26 22:45 | 28.07294 | -82.40996 | 1627 ft | 129 kts | 71° |
| 2026-04-26 22:45 | 28.07571 | -82.40021 | 1617 ft | 132 kts | 73° |
| 2026-04-26 22:45 | 28.07820 | -82.39022 | 1636 ft | 131 kts | 75° |
| 2026-04-26 22:45 | 28.08052 | -82.38029 | 1644 ft | 131 kts | 75° |
| 2026-04-26 22:46 | 28.08272 | -82.37025 | 1649 ft | 131 kts | 76° |
| 2026-04-26 22:46 | 28.08477 | -82.36022 | 1658 ft | 131 kts | 77° |
| 2026-04-26 22:46 | 28.08675 | -82.35014 | 1671 ft | 131 kts | 77° |
| 2026-04-26 22:46 | 28.08852 | -82.33994 | 1654 ft | 133 kts | 79° |
| 2026-04-26 22:47 | 28.09006 | -82.32955 | 1626 ft | 134 kts | 81° |
| 2026-04-26 22:47 | 28.09137 | -82.31916 | 1621 ft | 133 kts | 81° |
| 2026-04-26 22:47 | 28.09354 | -82.30909 | 1638 ft | 131 kts | 72° |
| 2026-04-26 22:47 | 28.09633 | -82.29920 | 1646 ft | 131 kts | 72° |
| 2026-04-26 22:48 | 28.09911 | -82.28941 | 1662 ft | 132 kts | 72° |
| 2026-04-26 22:48 | 28.10193 | -82.27947 | 1635 ft | 133 kts | 71° |
| 2026-04-26 22:48 | 28.10500 | -82.26971 | 1679 ft | 130 kts | 69° |
| 2026-04-26 22:48 | 28.10836 | -82.26021 | 1680 ft | 131 kts | 66° |
| 2026-04-26 22:49 | 28.11210 | -82.25077 | 1686 ft | 131 kts | 64° |
| 2026-04-26 22:49 | 28.11601 | -82.24142 | 1688 ft | 131 kts | 64° |
| 2026-04-26 22:49 | 28.12021 | -82.23224 | 1691 ft | 131 kts | 59° |
| 2026-04-26 22:49 | 28.12493 | -82.22333 | 1669 ft | 133 kts | 57° |
| 2026-04-26 22:50 | 28.12991 | -82.21448 | 1640 ft | 134 kts | 56° |
| 2026-04-26 22:50 | 28.13503 | -82.20572 | 1652 ft | 133 kts | 56° |
| 2026-04-26 22:50 | 28.14014 | -82.19709 | 1684 ft | 130 kts | 56° |
| 2026-04-26 22:50 | 28.14515 | -82.18868 | 1689 ft | 131 kts | 55° |
| 2026-04-26 22:51 | 28.15038 | -82.18018 | 1682 ft | 132 kts | 54° |
| 2026-04-26 22:51 | 28.15574 | -82.17171 | 1667 ft | 133 kts | 53° |
| 2026-04-26 22:51 | 28.16122 | -82.16324 | 1648 ft | 134 kts | 53° |
| 2026-04-26 22:51 | 28.16678 | -82.15479 | 1636 ft | 133 kts | 52° |
| 2026-04-26 22:52 | 28.17233 | -82.14641 | 1644 ft | 132 kts | 52° |
| 2026-04-26 22:52 | 28.17782 | -82.13820 | 1666 ft | 131 kts | 52° |
| 2026-04-26 22:52 | 28.18340 | -82.12996 | 1671 ft | 132 kts | 52° |
| 2026-04-26 22:52 | 28.18897 | -82.12176 | 1693 ft | 130 kts | 52° |
| 2026-04-26 22:53 | 28.19450 | -82.11364 | 1708 ft | 130 kts | 52° |
| 2026-04-26 22:53 | 28.20014 | -82.10539 | 1651 ft | 135 kts | 52° |
| 2026-04-26 22:53 | 28.20583 | -82.09711 | 1677 ft | 132 kts | 51° |
| 2026-04-26 22:53 | 28.21158 | -82.08899 | 1683 ft | 131 kts | 50° |
| 2026-04-26 22:54 | 28.21757 | -82.08118 | 1662 ft | 132 kts | 47° |
| 2026-04-26 22:54 | 28.22397 | -82.07354 | 1627 ft | 134 kts | 45° |
| 2026-04-26 22:54 | 28.23045 | -82.06613 | 1635 ft | 132 kts | 45° |
| 2026-04-26 22:54 | 28.23689 | -82.05875 | 1640 ft | 131 kts | 44° |
| 2026-04-26 22:55 | 28.24320 | -82.05115 | 1608 ft | 134 kts | 52° |
| 2026-04-26 22:55 | 28.24751 | -82.04202 | 1664 ft | 129 kts | 70° |
| 2026-04-26 22:55 | 28.25025 | -82.03225 | 1666 ft | 131 kts | 73° |
| 2026-04-26 22:55 | 28.25281 | -82.02227 | 1649 ft | 132 kts | 74° |
| 2026-04-26 22:56 | 28.25516 | -82.01220 | 1661 ft | 132 kts | 76° |
| 2026-04-26 22:56 | 28.25722 | -82.00214 | 1684 ft | 130 kts | 77° |
| 2026-04-26 22:56 | 28.25897 | -81.99204 | 1688 ft | 131 kts | 79° |
| 2026-04-26 22:56 | 28.26041 | -81.98172 | 1653 ft | 134 kts | 82° |
| 2026-04-26 22:57 | 28.26162 | -81.97125 | 1640 ft | 133 kts | 83° |
| 2026-04-26 22:57 | 28.26263 | -81.96085 | 1656 ft | 132 kts | 84° |
| 2026-04-26 22:57 | 28.26350 | -81.95059 | 1683 ft | 131 kts | 85° |
| 2026-04-26 22:57 | 28.26417 | -81.94018 | 1664 ft | 132 kts | 86° |
| 2026-04-26 22:58 | 28.26468 | -81.92992 | 1715 ft | 129 kts | 87° |
| 2026-04-26 22:58 | 28.26491 | -81.91961 | 1706 ft | 132 kts | 89° |
| 2026-04-26 22:58 | 28.26480 | -81.90910 | 1674 ft | 134 kts | 92° |
| 2026-04-26 22:58 | 28.26435 | -81.89859 | 1676 ft | 133 kts | 94° |
| 2026-04-26 22:59 | 28.26360 | -81.88817 | 1678 ft | 133 kts | 95° |
| 2026-04-26 22:59 | 28.26268 | -81.87778 | 1699 ft | 131 kts | 90° |
| 2026-04-26 22:59 | 28.26765 | -81.86975 | 1657 ft | 132 kts | 19° |
| 2026-04-26 22:59 | 28.27596 | -81.87217 | 1640 ft | 130 kts | 309° |
| 2026-04-26 23:00 | 28.27916 | -81.88158 | 1624 ft | 130 kts | 284° |
| 2026-04-26 23:00 | 28.28045 | -81.88822 | 1603 ft | 130 kts | 280° |
| 2026-04-26 23:00 | 28.28175 | -81.89826 | 1598 ft | 129 kts | 276° |
| 2026-04-26 23:00 | 28.28237 | -81.90849 | 1572 ft | 130 kts | 272° |
| 2026-04-26 23:01 | 28.28242 | -81.91870 | 1564 ft | 130 kts | 266° |
| 2026-04-26 23:01 | 28.27976 | -81.92819 | 1550 ft | 122 kts | 238° |
| 2026-04-26 23:01 | 28.27338 | -81.93308 | 1468 ft | 113 kts | 179° |
| 2026-04-26 23:01 | 28.26728 | -81.92767 | 1222 ft | 122 kts | 122° |
| 2026-04-26 23:02 | 28.26319 | -81.91964 | 1147 ft | 115 kts | 118° |
| 2026-04-26 23:02 | 28.25968 | -81.91175 | 1106 ft | 107 kts | 116° |
| 2026-04-26 23:02 | 28.25667 | -81.90429 | 1128 ft | 101 kts | 115° |
| 2026-04-26 23:02 | 28.25293 | -81.89743 | 1250 ft | 105 kts | 132° |
| 2026-04-26 23:03 | 28.24762 | -81.89157 | 1270 ft | 104 kts | 137° |
| 2026-04-26 23:03 | 28.24251 | -81.88608 | 1272 ft | 99 kts | 137° |
| 2026-04-26 23:03 | 28.23761 | -81.88075 | 1269 ft | 97 kts | 136° |
| 2026-04-26 23:03 | 28.23279 | -81.87533 | 1248 ft | 96 kts | 135° |
| 2026-04-26 23:04 | 28.22821 | -81.86992 | 1233 ft | 96 kts | 134° |
| 2026-04-26 23:04 | 28.22380 | -81.86442 | 1241 ft | 94 kts | 133° |
| 2026-04-26 23:04 | 28.21937 | -81.85879 | 1210 ft | 95 kts | 132° |
| 2026-04-26 23:04 | 28.21513 | -81.85304 | 1202 ft | 94 kts | 129° |
| 2026-04-26 23:05 | 28.21078 | -81.84741 | 1209 ft | 93 kts | 136° |
| 2026-04-26 23:05 | 28.20626 | -81.84221 | 1183 ft | 96 kts | 132° |
| 2026-04-26 23:05 | 28.20193 | -81.83645 | 1173 ft | 95 kts | 130° |
| 2026-04-26 23:05 | 28.19773 | -81.83066 | 1147 ft | 96 kts | 129° |
| 2026-04-26 23:06 | 28.19365 | -81.82473 | 1149 ft | 95 kts | 128° |
| 2026-04-26 23:06 | 28.18977 | -81.81863 | 1136 ft | 96 kts | 125° |
| 2026-04-26 23:06 | 28.18611 | -81.81239 | 1137 ft | 95 kts | 123° |
| 2026-04-26 23:06 | 28.18156 | -81.80710 | 1125 ft | 95 kts | 149° |
| 2026-04-26 23:07 | 28.17531 | -81.80521 | 1127 ft | 93 kts | 185° |
| 2026-04-26 23:07 | 28.16926 | -81.80790 | 1167 ft | 96 kts | 212° |
| 2026-04-26 23:07 | 28.16391 | -81.81259 | 1212 ft | 99 kts | 223° |
| 2026-04-26 23:07 | 28.15901 | -81.81828 | 1243 ft | 101 kts | 230° |
| 2026-04-26 23:08 | 28.15449 | -81.82459 | 1242 ft | 104 kts | 233° |
| 2026-04-26 23:08 | 28.15032 | -81.83108 | 1316 ft | 98 kts | 236° |
| 2026-04-26 23:08 | 28.14665 | -81.83768 | 1355 ft | 98 kts | 240° |
| 2026-04-26 23:08 | 28.14323 | -81.84456 | 1357 ft | 101 kts | 238° |
| 2026-04-26 23:09 | 28.13883 | -81.85068 | 1398 ft | 100 kts | 225° |
| 2026-04-26 23:09 | 28.13358 | -81.85598 | 1389 ft | 103 kts | 215° |
| 2026-04-26 23:09 | 28.12732 | -81.85997 | 1388 ft | 104 kts | 210° |
| 2026-04-26 23:09 | 28.12107 | -81.86404 | 1405 ft | 102 kts | 212° |
| 2026-04-26 23:10 | 28.11501 | -81.86829 | 1412 ft | 103 kts | 213° |
| 2026-04-26 23:10 | 28.10901 | -81.87265 | 1424 ft | 103 kts | 213° |
| 2026-04-26 23:10 | 28.10296 | -81.87691 | 1435 ft | 104 kts | 212° |
| 2026-04-26 23:10 | 28.09669 | -81.88107 | 1443 ft | 103 kts | 211° |
| 2026-04-26 23:11 | 28.09049 | -81.88515 | 1438 ft | 105 kts | 212° |
| 2026-04-26 23:11 | 28.08411 | -81.88972 | 1361 ft | 111 kts | 214° |
| 2026-04-26 23:11 | 28.07781 | -81.89459 | 1329 ft | 110 kts | 216° |
| 2026-04-26 23:11 | 28.07169 | -81.89951 | 1318 ft | 105 kts | 217° |
| 2026-04-26 23:12 | 28.06584 | -81.90449 | 1261 ft | 105 kts | 218° |
| 2026-04-26 23:12 | 28.05993 | -81.90958 | 1177 ft | 107 kts | 218° |
| 2026-04-26 23:12 | 28.05412 | -81.91478 | 1138 ft | 105 kts | 220° |
| 2026-04-26 23:12 | 28.04844 | -81.92007 | 1100 ft | 104 kts | 220° |
| 2026-04-26 23:13 | 28.04284 | -81.92537 | 1034 ft | 106 kts | 221° |
| 2026-04-26 23:13 | 28.03730 | -81.93085 | 964 ft | 106 kts | 223° |
| 2026-04-26 23:13 | 28.03180 | -81.93656 | 883 ft | 107 kts | 224° |
| 2026-04-26 23:13 | 28.02654 | -81.94228 | 786 ft | 105 kts | 226° |
| 2026-04-26 23:14 | 28.02156 | -81.94851 | 635 ft | 103 kts | 230° |
| 2026-04-26 23:14 | 28.01716 | -81.95447 | 618 ft | 95 kts | 231° |
| 2026-04-26 23:14 | 28.01210 | -81.95915 | 678 ft | 97 kts | 214° |
| 2026-04-26 23:14 | 28.00648 | -81.96338 | 742 ft | 96 kts | 215° |
| 2026-04-26 23:15 | 28.00101 | -81.96763 | 825 ft | 95 kts | 216° |
| 2026-04-26 23:15 | 27.99579 | -81.97227 | 861 ft | 97 kts | 221° |
| 2026-04-26 23:15 | 27.99134 | -81.97744 | 846 ft | 85 kts | 236° |
| 2026-04-26 23:15 | 27.98927 | -81.98337 | 756 ft | 80 kts | 264° |
| 2026-04-26 23:16 | 27.98918 | -81.98953 | 647 ft | 78 kts | 271° |
| 2026-04-26 23:16 | 27.98913 | -81.99557 | 507 ft | 76 kts | 268° |
| 2026-04-26 23:16 | 27.98915 | -82.00120 | 371 ft | 70 kts | 270° |
| 2026-04-26 23:16 | 27.98922 | -82.00665 | 222 ft | 69 kts | 271° |
| 2026-04-26 23:17 | 27.98929 | -82.01145 | 147 ft | 52 kts | 269° |
| 2026-04-26 23:17 | 27.98921 | -82.01467 | 141 ft | 32 kts | 270° |
| 2026-04-26 23:17 | 27.98924 | -82.01674 | 141 ft | 21 kts | 272° |
| 2026-04-26 23:17 | 27.98927 | -82.01736 | 142 ft | 6 kts | 273° |
| 2026-04-26 23:18 | 27.98931 | -82.01786 | 142 ft | 7 kts | 278° |